sensor_id;sensor_type;location;lat;lon;timestamp;P1;durP1;ratioP1;P2;durP2;ratioP2
12373;SDS011;6251;51.762;8.660;2023-03-11T00:00:16;9.07;;;5.20;;
12373;SDS011;6251;51.762;8.660;2023-03-11T00:10:23;8.57;;;5.07;;
12373;SDS011;6251;51.762;8.660;2023-03-11T02:02:57;10.53;;;5.23;;
12373;SDS011;6251;51.762;8.660;2023-03-11T02:12:36;9.20;;;5.00;;
12373;SDS011;6251;51.762;8.660;2023-03-11T03:54:10;8.30;;;4.67;;
12373;SDS011;6251;51.762;8.660;2023-03-11T05:05:13;8.60;;;3.90;;
12373;SDS011;6251;51.762;8.660;2023-03-11T05:15:14;6.90;;;4.57;;
12373;SDS011;6251;51.762;8.660;2023-03-11T05:25:14;7.37;;;4.07;;
12373;SDS011;6251;51.762;8.660;2023-03-11T05:35:15;6.03;;;3.60;;
12373;SDS011;6251;51.762;8.660;2023-03-11T05:45:16;11.73;;;6.27;;
12373;SDS011;6251;51.762;8.660;2023-03-11T05:55:16;10.27;;;6.87;;
12373;SDS011;6251;51.762;8.660;2023-03-11T06:05:17;8.70;;;3.70;;
12373;SDS011;6251;51.762;8.660;2023-03-11T06:15:18;5.57;;;3.70;;
12373;SDS011;6251;51.762;8.660;2023-03-11T06:25:18;11.37;;;3.50;;
12373;SDS011;6251;51.762;8.660;2023-03-11T06:35:19;4.03;;;2.57;;
12373;SDS011;6251;51.762;8.660;2023-03-11T06:45:20;6.97;;;2.90;;
12373;SDS011;6251;51.762;8.660;2023-03-11T06:55:20;6.70;;;3.23;;
12373;SDS011;6251;51.762;8.660;2023-03-11T07:05:21;7.03;;;3.47;;
12373;SDS011;6251;51.762;8.660;2023-03-11T07:15:22;5.17;;;2.93;;
12373;SDS011;6251;51.762;8.660;2023-03-11T07:25:22;4.47;;;3.00;;
12373;SDS011;6251;51.762;8.660;2023-03-11T07:35:23;5.80;;;3.00;;
12373;SDS011;6251;51.762;8.660;2023-03-11T07:45:23;8.00;;;2.67;;
12373;SDS011;6251;51.762;8.660;2023-03-11T07:55:24;5.43;;;3.00;;
12373;SDS011;6251;51.762;8.660;2023-03-11T08:05:25;4.67;;;3.50;;
12373;SDS011;6251;51.762;8.660;2023-03-11T08:15:25;7.00;;;2.93;;
12373;SDS011;6251;51.762;8.660;2023-03-11T08:25:26;4.20;;;3.20;;
12373;SDS011;6251;51.762;8.660;2023-03-11T08:35:26;5.50;;;3.00;;
12373;SDS011;6251;51.762;8.660;2023-03-11T08:45:27;4.28;;;3.12;;
12373;SDS011;6251;51.762;8.660;2023-03-11T08:55:28;4.57;;;2.83;;
12373;SDS011;6251;51.762;8.660;2023-03-11T09:05:28;5.40;;;2.80;;
12373;SDS011;6251;51.762;8.660;2023-03-11T09:15:29;6.27;;;2.93;;
12373;SDS011;6251;51.762;8.660;2023-03-11T09:25:30;5.17;;;2.73;;
12373;SDS011;6251;51.762;8.660;2023-03-11T09:35:30;3.97;;;2.70;;
12373;SDS011;6251;51.762;8.660;2023-03-11T09:45:33;5.47;;;2.57;;
12373;SDS011;6251;51.762;8.660;2023-03-11T10:05:47;4.20;;;2.60;;
12373;SDS011;6251;51.762;8.660;2023-03-11T10:37:03;4.87;;;2.33;;
12373;SDS011;6251;51.762;8.660;2023-03-11T10:47:18;2.07;;;1.87;;
12373;SDS011;6251;51.762;8.660;2023-03-11T10:57:22;4.63;;;2.07;;
12373;SDS011;6251;51.762;8.660;2023-03-11T11:07:28;2.70;;;2.13;;
12373;SDS011;6251;51.762;8.660;2023-03-11T11:17:31;5.80;;;1.93;;
12373;SDS011;6251;51.762;8.660;2023-03-11T11:27:33;2.73;;;1.60;;
12373;SDS011;6251;51.762;8.660;2023-03-11T11:37:34;3.57;;;2.10;;
12373;SDS011;6251;51.762;8.660;2023-03-11T11:47:38;5.00;;;1.87;;
12373;SDS011;6251;51.762;8.660;2023-03-11T11:57:44;4.73;;;2.00;;
12373;SDS011;6251;51.762;8.660;2023-03-11T12:18:13;2.27;;;1.70;;
12373;SDS011;6251;51.762;8.660;2023-03-11T12:38:46;3.43;;;1.50;;
12373;SDS011;6251;51.762;8.660;2023-03-11T13:09:13;3.60;;;1.60;;
12373;SDS011;6251;51.762;8.660;2023-03-11T13:39:59;2.23;;;1.80;;
12373;SDS011;6251;51.762;8.660;2023-03-11T13:50:05;2.03;;;1.50;;
12373;SDS011;6251;51.762;8.660;2023-03-11T14:00:14;1.50;;;1.40;;
12373;SDS011;6251;51.762;8.660;2023-03-11T14:10:18;3.33;;;1.83;;
12373;SDS011;6251;51.762;8.660;2023-03-11T14:20:23;4.27;;;1.70;;
12373;SDS011;6251;51.762;8.660;2023-03-11T14:30:26;1.53;;;1.20;;
12373;SDS011;6251;51.762;8.660;2023-03-11T14:40:29;2.03;;;1.30;;
12373;SDS011;6251;51.762;8.660;2023-03-11T14:50:31;2.43;;;1.73;;
12373;SDS011;6251;51.762;8.660;2023-03-11T15:00:38;1.40;;;1.30;;
12373;SDS011;6251;51.762;8.660;2023-03-11T15:10:59;1.70;;;1.57;;
12373;SDS011;6251;51.762;8.660;2023-03-11T15:21:13;1.50;;;1.20;;
12373;SDS011;6251;51.762;8.660;2023-03-11T15:41:21;1.90;;;1.80;;
12373;SDS011;6251;51.762;8.660;2023-03-11T15:51:22;3.00;;;1.23;;
12373;SDS011;6251;51.762;8.660;2023-03-11T16:01:22;1.90;;;1.33;;
12373;SDS011;6251;51.762;8.660;2023-03-11T16:11:27;1.33;;;1.23;;
12373;SDS011;6251;51.762;8.660;2023-03-11T16:21:35;2.10;;;1.20;;
12373;SDS011;6251;51.762;8.660;2023-03-11T16:31:43;2.43;;;1.27;;
12373;SDS011;6251;51.762;8.660;2023-03-11T16:41:44;2.13;;;1.30;;
12373;SDS011;6251;51.762;8.660;2023-03-11T16:51:44;1.73;;;1.40;;
12373;SDS011;6251;51.762;8.660;2023-03-11T17:01:45;2.00;;;1.63;;
12373;SDS011;6251;51.762;8.660;2023-03-11T17:11:46;1.20;;;1.20;;
12373;SDS011;6251;51.762;8.660;2023-03-11T17:21:49;1.63;;;1.53;;
12373;SDS011;6251;51.762;8.660;2023-03-11T17:31:50;3.83;;;2.50;;
12373;SDS011;6251;51.762;8.660;2023-03-11T17:41:50;3.20;;;2.90;;
12373;SDS011;6251;51.762;8.660;2023-03-11T17:51:51;4.83;;;3.73;;
12373;SDS011;6251;51.762;8.660;2023-03-11T18:01:52;5.20;;;4.60;;
12373;SDS011;6251;51.762;8.660;2023-03-11T18:11:52;6.07;;;4.57;;
12373;SDS011;6251;51.762;8.660;2023-03-11T18:21:53;7.87;;;3.90;;
12373;SDS011;6251;51.762;8.660;2023-03-11T18:31:54;3.10;;;2.90;;
12373;SDS011;6251;51.762;8.660;2023-03-11T18:41:55;4.10;;;3.30;;
12373;SDS011;6251;51.762;8.660;2023-03-11T18:51:55;9.10;;;6.03;;
12373;SDS011;6251;51.762;8.660;2023-03-11T19:01:56;7.20;;;5.30;;
12373;SDS011;6251;51.762;8.660;2023-03-11T19:11:56;6.63;;;5.23;;
12373;SDS011;6251;51.762;8.660;2023-03-11T19:21:57;9.37;;;5.90;;
12373;SDS011;6251;51.762;8.660;2023-03-11T19:31:58;7.10;;;5.53;;
12373;SDS011;6251;51.762;8.660;2023-03-11T19:41:58;5.97;;;5.10;;
12373;SDS011;6251;51.762;8.660;2023-03-11T19:51:59;8.07;;;5.70;;
12373;SDS011;6251;51.762;8.660;2023-03-11T20:02:00;8.77;;;6.90;;
12373;SDS011;6251;51.762;8.660;2023-03-11T20:12:01;11.87;;;7.60;;
12373;SDS011;6251;51.762;8.660;2023-03-11T20:22:02;10.70;;;8.30;;
12373;SDS011;6251;51.762;8.660;2023-03-11T20:32:03;14.43;;;9.80;;
12373;SDS011;6251;51.762;8.660;2023-03-11T20:42:04;11.27;;;9.13;;
12373;SDS011;6251;51.762;8.660;2023-03-11T20:52:04;13.30;;;10.40;;
12373;SDS011;6251;51.762;8.660;2023-03-11T21:02:05;15.10;;;10.43;;
12373;SDS011;6251;51.762;8.660;2023-03-11T21:12:08;17.07;;;10.40;;
12373;SDS011;6251;51.762;8.660;2023-03-11T21:22:08;17.47;;;11.63;;
12373;SDS011;6251;51.762;8.660;2023-03-11T21:32:10;20.47;;;12.57;;
12373;SDS011;6251;51.762;8.660;2023-03-11T21:42:11;16.97;;;12.40;;
12373;SDS011;6251;51.762;8.660;2023-03-11T21:52:12;15.87;;;11.33;;
